sensor_id;sensor_type;location;lat;lon;timestamp;P1;durP1;ratioP1;P2;durP2;ratioP2
19675;SDS011;39539;52.202;9.876;2023-11-22T00:00:34;6.70;;;4.05;;
19675;SDS011;39539;52.202;9.876;2023-11-22T00:03:00;4.18;;;3.58;;
19675;SDS011;39539;52.202;9.876;2023-11-22T00:05:25;4.50;;;3.75;;
19675;SDS011;39539;52.202;9.876;2023-11-22T00:07:51;4.25;;;3.85;;
19675;SDS011;39539;52.202;9.876;2023-11-22T00:10:16;5.40;;;3.60;;
19675;SDS011;39539;52.202;9.876;2023-11-22T00:12:42;5.07;;;3.50;;
19675;SDS011;39539;52.202;9.876;2023-11-22T00:15:07;3.55;;;3.10;;
19675;SDS011;39539;52.202;9.876;2023-11-22T00:17:33;4.40;;;3.72;;
19675;SDS011;39539;52.202;9.876;2023-11-22T00:19:59;4.90;;;3.50;;
19675;SDS011;39539;52.202;9.876;2023-11-22T00:22:31;3.88;;;3.40;;
19675;SDS011;39539;52.202;9.876;2023-11-22T00:24:57;5.88;;;4.07;;
19675;SDS011;39539;52.202;9.876;2023-11-22T00:27:23;3.65;;;3.20;;
19675;SDS011;39539;52.202;9.876;2023-11-22T00:29:48;5.10;;;4.10;;
19675;SDS011;39539;52.202;9.876;2023-11-22T00:32:14;3.88;;;3.17;;
19675;SDS011;39539;52.202;9.876;2023-11-22T00:34:39;3.78;;;3.35;;
19675;SDS011;39539;52.202;9.876;2023-11-22T00:37:04;3.50;;;3.17;;
19675;SDS011;39539;52.202;9.876;2023-11-22T00:39:30;5.30;;;3.40;;
19675;SDS011;39539;52.202;9.876;2023-11-22T00:41:55;3.88;;;3.47;;
19675;SDS011;39539;52.202;9.876;2023-11-22T00:44:21;4.40;;;3.80;;
19675;SDS011;39539;52.202;9.876;2023-11-22T00:46:46;3.50;;;2.95;;
19675;SDS011;39539;52.202;9.876;2023-11-22T00:49:12;5.70;;;4.38;;
19675;SDS011;39539;52.202;9.876;2023-11-22T00:51:38;3.95;;;3.55;;
19675;SDS011;39539;52.202;9.876;2023-11-22T00:54:03;3.92;;;3.53;;
19675;SDS011;39539;52.202;9.876;2023-11-22T00:56:29;3.70;;;3.38;;
19675;SDS011;39539;52.202;9.876;2023-11-22T00:58:55;3.60;;;3.05;;
19675;SDS011;39539;52.202;9.876;2023-11-22T01:01:22;4.50;;;4.07;;
19675;SDS011;39539;52.202;9.876;2023-11-22T01:03:47;3.47;;;3.17;;
19675;SDS011;39539;52.202;9.876;2023-11-22T01:06:13;6.63;;;3.97;;
19675;SDS011;39539;52.202;9.876;2023-11-22T01:08:39;5.70;;;3.63;;
19675;SDS011;39539;52.202;9.876;2023-11-22T01:11:04;5.47;;;3.58;;
19675;SDS011;39539;52.202;9.876;2023-11-22T01:13:31;4.82;;;3.47;;
19675;SDS011;39539;52.202;9.876;2023-11-22T01:15:57;4.55;;;3.40;;
19675;SDS011;39539;52.202;9.876;2023-11-22T01:18:22;2.47;;;2.28;;
19675;SDS011;39539;52.202;9.876;2023-11-22T01:20:48;4.18;;;3.63;;
19675;SDS011;39539;52.202;9.876;2023-11-22T01:23:14;3.42;;;3.05;;
19675;SDS011;39539;52.202;9.876;2023-11-22T01:25:39;3.35;;;2.90;;
19675;SDS011;39539;52.202;9.876;2023-11-22T01:28:04;4.13;;;3.22;;
19675;SDS011;39539;52.202;9.876;2023-11-22T01:30:31;4.20;;;3.80;;
19675;SDS011;39539;52.202;9.876;2023-11-22T01:32:57;5.63;;;3.90;;
19675;SDS011;39539;52.202;9.876;2023-11-22T01:35:22;3.45;;;3.10;;
19675;SDS011;39539;52.202;9.876;2023-11-22T01:37:48;5.15;;;3.83;;
19675;SDS011;39539;52.202;9.876;2023-11-22T01:40:14;4.20;;;3.20;;
19675;SDS011;39539;52.202;9.876;2023-11-22T01:42:39;4.53;;;3.83;;
19675;SDS011;39539;52.202;9.876;2023-11-22T01:45:06;4.10;;;3.58;;
19675;SDS011;39539;52.202;9.876;2023-11-22T01:47:32;4.75;;;3.80;;
19675;SDS011;39539;52.202;9.876;2023-11-22T01:49:58;7.28;;;4.05;;
19675;SDS011;39539;52.202;9.876;2023-11-22T01:52:23;3.85;;;3.15;;
19675;SDS011;39539;52.202;9.876;2023-11-22T01:54:49;4.60;;;4.15;;
19675;SDS011;39539;52.202;9.876;2023-11-22T01:57:14;4.63;;;3.70;;
19675;SDS011;39539;52.202;9.876;2023-11-22T01:59:40;3.58;;;3.28;;
19675;SDS011;39539;52.202;9.876;2023-11-22T02:02:08;3.90;;;3.28;;
19675;SDS011;39539;52.202;9.876;2023-11-22T02:04:34;4.22;;;3.67;;
19675;SDS011;39539;52.202;9.876;2023-11-22T02:06:59;3.63;;;3.33;;
19675;SDS011;39539;52.202;9.876;2023-11-22T02:09:25;4.10;;;3.70;;
19675;SDS011;39539;52.202;9.876;2023-11-22T02:11:50;7.75;;;3.72;;
19675;SDS011;39539;52.202;9.876;2023-11-22T02:14:15;6.40;;;4.20;;
19675;SDS011;39539;52.202;9.876;2023-11-22T02:16:41;4.82;;;2.97;;
19675;SDS011;39539;52.202;9.876;2023-11-22T02:19:06;4.07;;;3.60;;
19675;SDS011;39539;52.202;9.876;2023-11-22T02:21:35;4.70;;;3.25;;
19675;SDS011;39539;52.202;9.876;2023-11-22T02:24:00;5.45;;;3.85;;
19675;SDS011;39539;52.202;9.876;2023-11-22T02:26:26;5.20;;;3.13;;
19675;SDS011;39539;52.202;9.876;2023-11-22T02:28:52;9.82;;;3.40;;
19675;SDS011;39539;52.202;9.876;2023-11-22T02:31:18;3.83;;;3.42;;
19675;SDS011;39539;52.202;9.876;2023-11-22T02:33:43;6.13;;;4.43;;
19675;SDS011;39539;52.202;9.876;2023-11-22T02:36:08;3.63;;;3.22;;
19675;SDS011;39539;52.202;9.876;2023-11-22T02:38:37;4.00;;;3.45;;
19675;SDS011;39539;52.202;9.876;2023-11-22T02:41:03;3.78;;;3.13;;
19675;SDS011;39539;52.202;9.876;2023-11-22T02:43:29;4.43;;;3.97;;
19675;SDS011;39539;52.202;9.876;2023-11-22T02:45:54;6.88;;;3.67;;
19675;SDS011;39539;52.202;9.876;2023-11-22T02:48:20;4.15;;;3.08;;
19675;SDS011;39539;52.202;9.876;2023-11-22T02:50:45;5.07;;;3.80;;
19675;SDS011;39539;52.202;9.876;2023-11-22T02:53:10;4.13;;;3.70;;
19675;SDS011;39539;52.202;9.876;2023-11-22T02:55:36;4.18;;;3.53;;
19675;SDS011;39539;52.202;9.876;2023-11-22T02:58:01;5.20;;;3.60;;
19675;SDS011;39539;52.202;9.876;2023-11-22T03:00:27;5.82;;;3.42;;
19675;SDS011;39539;52.202;9.876;2023-11-22T03:02:54;3.90;;;2.72;;
19675;SDS011;39539;52.202;9.876;2023-11-22T03:05:21;4.78;;;3.08;;
19675;SDS011;39539;52.202;9.876;2023-11-22T03:07:47;6.10;;;3.22;;
19675;SDS011;39539;52.202;9.876;2023-11-22T03:10:12;3.72;;;3.10;;
19675;SDS011;39539;52.202;9.876;2023-11-22T03:12:38;4.63;;;3.55;;
19675;SDS011;39539;52.202;9.876;2023-11-22T03:15:03;3.97;;;3.25;;
19675;SDS011;39539;52.202;9.876;2023-11-22T03:17:30;8.02;;;3.75;;
19675;SDS011;39539;52.202;9.876;2023-11-22T03:19:56;6.65;;;3.35;;
19675;SDS011;39539;52.202;9.876;2023-11-22T03:22:25;5.20;;;3.53;;
19675;SDS011;39539;52.202;9.876;2023-11-22T03:24:50;4.18;;;3.15;;
19675;SDS011;39539;52.202;9.876;2023-11-22T03:27:16;3.28;;;2.97;;
19675;SDS011;39539;52.202;9.876;2023-11-22T03:29:42;5.78;;;3.33;;
19675;SDS011;39539;52.202;9.876;2023-11-22T03:32:07;5.03;;;3.20;;
19675;SDS011;39539;52.202;9.876;2023-11-22T03:34:33;4.20;;;3.22;;
19675;SDS011;39539;52.202;9.876;2023-11-22T03:36:58;3.78;;;3.35;;
19675;SDS011;39539;52.202;9.876;2023-11-22T03:39:23;5.50;;;3.42;;
19675;SDS011;39539;52.202;9.876;2023-11-22T03:41:49;4.80;;;3.83;;
19675;SDS011;39539;52.202;9.876;2023-11-22T03:44:15;4.18;;;3.65;;
19675;SDS011;39539;52.202;9.876;2023-11-22T03:46:41;4.25;;;3.78;;
19675;SDS011;39539;52.202;9.876;2023-11-22T03:49:06;4.15;;;3.15;;
19675;SDS011;39539;52.202;9.876;2023-11-22T03:51:32;5.68;;;3.65;;
19675;SDS011;39539;52.202;9.876;2023-11-22T03:53:58;3.80;;;3.20;;
19675;SDS011;39539;52.202;9.876;2023-11-22T03:56:23;4.07;;;3.67;;
19675;SDS011;39539;52.202;9.876;2023-11-22T03:58:48;4.30;;;3.70;;
19675;SDS011;39539;52.202;9.876;2023-11-22T04:01:14;4.20;;;3.53;;
19675;SDS011;39539;52.202;9.876;2023-11-22T04:03:41;5.25;;;3.80;;
19675;SDS011;39539;52.202;9.876;2023-11-22T04:06:06;5.13;;;3.80;;
19675;SDS011;39539;52.202;9.876;2023-11-22T04:08:31;3.72;;;3.13;;
19675;SDS011;39539;52.202;9.876;2023-11-22T04:10:57;4.53;;;3.22;;
19675;SDS011;39539;52.202;9.876;2023-11-22T04:13:22;4.82;;;3.28;;
19675;SDS011;39539;52.202;9.876;2023-11-22T04:15:49;3.63;;;3.30;;
19675;SDS011;39539;52.202;9.876;2023-11-22T04:18:15;8.43;;;3.65;;
19675;SDS011;39539;52.202;9.876;2023-11-22T04:20:41;4.32;;;3.38;;
19675;SDS011;39539;52.202;9.876;2023-11-22T04:23:07;4.63;;;3.47;;
19675;SDS011;39539;52.202;9.876;2023-11-22T04:25:34;3.78;;;3.17;;
19675;SDS011;39539;52.202;9.876;2023-11-22T04:28:00;3.13;;;2.72;;
19675;SDS011;39539;52.202;9.876;2023-11-22T04:30:25;4.30;;;2.60;;
19675;SDS011;39539;52.202;9.876;2023-11-22T04:32:51;4.38;;;3.50;;
19675;SDS011;39539;52.202;9.876;2023-11-22T04:35:16;4.90;;;3.20;;
19675;SDS011;39539;52.202;9.876;2023-11-22T04:37:41;3.97;;;3.58;;
19675;SDS011;39539;52.202;9.876;2023-11-22T04:40:09;6.40;;;3.78;;
19675;SDS011;39539;52.202;9.876;2023-11-22T04:42:36;3.90;;;3.15;;
19675;SDS011;39539;52.202;9.876;2023-11-22T04:45:02;3.95;;;3.55;;
19675;SDS011;39539;52.202;9.876;2023-11-22T04:47:28;4.60;;;3.80;;
19675;SDS011;39539;52.202;9.876;2023-11-22T04:49:53;4.43;;;3.15;;
19675;SDS011;39539;52.202;9.876;2023-11-22T04:52:19;4.75;;;3.22;;
19675;SDS011;39539;52.202;9.876;2023-11-22T04:54:44;3.55;;;3.10;;
19675;SDS011;39539;52.202;9.876;2023-11-22T04:57:09;3.65;;;3.20;;
19675;SDS011;39539;52.202;9.876;2023-11-22T04:59:35;8.00;;;3.60;;
19675;SDS011;39539;52.202;9.876;2023-11-22T05:02:00;3.53;;;3.17;;
19675;SDS011;39539;52.202;9.876;2023-11-22T05:04:26;3.53;;;3.22;;
19675;SDS011;39539;52.202;9.876;2023-11-22T05:06:51;4.05;;;3.25;;
19675;SDS011;39539;52.202;9.876;2023-11-22T05:09:18;5.07;;;3.25;;
19675;SDS011;39539;52.202;9.876;2023-11-22T05:11:43;6.82;;;3.30;;
19675;SDS011;39539;52.202;9.876;2023-11-22T05:14:09;3.63;;;3.28;;
19675;SDS011;39539;52.202;9.876;2023-11-22T05:16:35;3.50;;;2.80;;
19675;SDS011;39539;52.202;9.876;2023-11-22T05:19:00;3.72;;;3.08;;
19675;SDS011;39539;52.202;9.876;2023-11-22T05:21:26;4.03;;;3.50;;
19675;SDS011;39539;52.202;9.876;2023-11-22T05:23:51;3.70;;;3.20;;
19675;SDS011;39539;52.202;9.876;2023-11-22T05:26:19;6.05;;;2.90;;
19675;SDS011;39539;52.202;9.876;2023-11-22T05:28:44;4.97;;;3.00;;
19675;SDS011;39539;52.202;9.876;2023-11-22T05:31:11;4.43;;;3.45;;
19675;SDS011;39539;52.202;9.876;2023-11-22T05:33:37;5.00;;;3.97;;
19675;SDS011;39539;52.202;9.876;2023-11-22T05:36:02;5.95;;;3.65;;
19675;SDS011;39539;52.202;9.876;2023-11-22T05:38:28;4.35;;;3.45;;
19675;SDS011;39539;52.202;9.876;2023-11-22T05:40:53;3.30;;;3.00;;
19675;SDS011;39539;52.202;9.876;2023-11-22T05:43:19;4.57;;;3.10;;
19675;SDS011;39539;52.202;9.876;2023-11-22T05:45:50;3.70;;;3.03;;
19675;SDS011;39539;52.202;9.876;2023-11-22T05:48:16;3.60;;;3.10;;
19675;SDS011;39539;52.202;9.876;2023-11-22T05:50:41;5.90;;;3.35;;
19675;SDS011;39539;52.202;9.876;2023-11-22T05:53:06;9.10;;;4.50;;
19675;SDS011;39539;52.202;9.876;2023-11-22T05:55:32;3.92;;;2.92;;
19675;SDS011;39539;52.202;9.876;2023-11-22T05:57:57;3.88;;;3.00;;
19675;SDS011;39539;52.202;9.876;2023-11-22T06:00:22;4.80;;;3.22;;
19675;SDS011;39539;52.202;9.876;2023-11-22T06:02:48;3.67;;;2.60;;
19675;SDS011;39539;52.202;9.876;2023-11-22T06:05:13;4.20;;;3.08;;
19675;SDS011;39539;52.202;9.876;2023-11-22T06:07:38;3.60;;;3.28;;
19675;SDS011;39539;52.202;9.876;2023-11-22T06:10:04;5.18;;;3.55;;
19675;SDS011;39539;52.202;9.876;2023-11-22T06:12:30;9.10;;;3.30;;
19675;SDS011;39539;52.202;9.876;2023-11-22T06:14:55;2.97;;;2.63;;
19675;SDS011;39539;52.202;9.876;2023-11-22T06:17:20;2.63;;;2.40;;
19675;SDS011;39539;52.202;9.876;2023-11-22T06:19:46;3.33;;;2.25;;
19675;SDS011;39539;52.202;9.876;2023-11-22T06:22:11;3.60;;;2.42;;
19675;SDS011;39539;52.202;9.876;2023-11-22T06:24:36;4.68;;;2.20;;
19675;SDS011;39539;52.202;9.876;2023-11-22T06:27:02;4.88;;;3.00;;
19675;SDS011;39539;52.202;9.876;2023-11-22T06:29:28;3.28;;;2.78;;
19675;SDS011;39539;52.202;9.876;2023-11-22T06:31:54;3.28;;;2.90;;
19675;SDS011;39539;52.202;9.876;2023-11-22T06:34:19;2.88;;;2.47;;
19675;SDS011;39539;52.202;9.876;2023-11-22T06:36:45;3.25;;;2.70;;
19675;SDS011;39539;52.202;9.876;2023-11-22T06:39:10;4.35;;;3.35;;
19675;SDS011;39539;52.202;9.876;2023-11-22T06:41:40;3.15;;;2.83;;
19675;SDS011;39539;52.202;9.876;2023-11-22T06:44:06;4.70;;;2.70;;
19675;SDS011;39539;52.202;9.876;2023-11-22T06:46:31;3.85;;;2.88;;
19675;SDS011;39539;52.202;9.876;2023-11-22T06:48:57;5.25;;;3.38;;
19675;SDS011;39539;52.202;9.876;2023-11-22T06:51:24;5.05;;;3.38;;
19675;SDS011;39539;52.202;9.876;2023-11-22T06:53:49;7.90;;;3.13;;
19675;SDS011;39539;52.202;9.876;2023-11-22T06:56:17;3.38;;;2.35;;
19675;SDS011;39539;52.202;9.876;2023-11-22T06:58:42;4.70;;;3.20;;
19675;SDS011;39539;52.202;9.876;2023-11-22T07:01:08;4.50;;;3.03;;
19675;SDS011;39539;52.202;9.876;2023-11-22T07:03:35;3.90;;;3.35;;
19675;SDS011;39539;52.202;9.876;2023-11-22T07:06:01;3.72;;;3.42;;
19675;SDS011;39539;52.202;9.876;2023-11-22T07:08:27;3.75;;;3.20;;
19675;SDS011;39539;52.202;9.876;2023-11-22T07:10:53;2.60;;;2.40;;
19675;SDS011;39539;52.202;9.876;2023-11-22T07:13:18;4.53;;;3.55;;
19675;SDS011;39539;52.202;9.876;2023-11-22T07:15:44;5.20;;;3.42;;
19675;SDS011;39539;52.202;9.876;2023-11-22T07:18:09;6.65;;;3.25;;
19675;SDS011;39539;52.202;9.876;2023-11-22T07:20:35;5.53;;;3.53;;
19675;SDS011;39539;52.202;9.876;2023-11-22T07:23:01;3.53;;;2.60;;
19675;SDS011;39539;52.202;9.876;2023-11-22T07:25:27;4.05;;;2.85;;
19675;SDS011;39539;52.202;9.876;2023-11-22T07:27:54;2.47;;;2.28;;
19675;SDS011;39539;52.202;9.876;2023-11-22T07:30:19;3.63;;;2.38;;
19675;SDS011;39539;52.202;9.876;2023-11-22T07:32:47;2.92;;;2.42;;
19675;SDS011;39539;52.202;9.876;2023-11-22T07:35:13;4.75;;;2.92;;
19675;SDS011;39539;52.202;9.876;2023-11-22T07:37:40;3.90;;;2.92;;
19675;SDS011;39539;52.202;9.876;2023-11-22T07:40:09;3.55;;;3.20;;
19675;SDS011;39539;52.202;9.876;2023-11-22T07:42:37;3.67;;;2.90;;
19675;SDS011;39539;52.202;9.876;2023-11-22T07:45:02;4.85;;;3.75;;
19675;SDS011;39539;52.202;9.876;2023-11-22T07:47:28;4.13;;;3.72;;
19675;SDS011;39539;52.202;9.876;2023-11-22T07:49:54;3.80;;;2.47;;
19675;SDS011;39539;52.202;9.876;2023-11-22T07:52:23;4.25;;;3.08;;
19675;SDS011;39539;52.202;9.876;2023-11-22T07:54:57;3.25;;;2.42;;
19675;SDS011;39539;52.202;9.876;2023-11-22T07:57:22;3.85;;;2.25;;
19675;SDS011;39539;52.202;9.876;2023-11-22T07:59:48;3.20;;;2.80;;
19675;SDS011;39539;52.202;9.876;2023-11-22T08:02:14;5.18;;;2.45;;
19675;SDS011;39539;52.202;9.876;2023-11-22T08:04:40;2.53;;;2.30;;
19675;SDS011;39539;52.202;9.876;2023-11-22T08:07:06;3.65;;;2.20;;
19675;SDS011;39539;52.202;9.876;2023-11-22T08:09:32;3.13;;;2.72;;
19675;SDS011;39539;52.202;9.876;2023-11-22T08:11:58;3.10;;;2.63;;
19675;SDS011;39539;52.202;9.876;2023-11-22T08:14:26;3.08;;;2.42;;
19675;SDS011;39539;52.202;9.876;2023-11-22T08:16:53;3.10;;;2.58;;
19675;SDS011;39539;52.202;9.876;2023-11-22T08:19:19;2.10;;;1.95;;
19675;SDS011;39539;52.202;9.876;2023-11-22T08:21:44;3.85;;;2.28;;
19675;SDS011;39539;52.202;9.876;2023-11-22T08:24:09;4.32;;;2.15;;
19675;SDS011;39539;52.202;9.876;2023-11-22T08:26:37;2.92;;;2.20;;
19675;SDS011;39539;52.202;9.876;2023-11-22T08:29:03;3.92;;;2.20;;
19675;SDS011;39539;52.202;9.876;2023-11-22T08:31:29;2.95;;;2.60;;
19675;SDS011;39539;52.202;9.876;2023-11-22T08:33:55;4.00;;;2.92;;
19675;SDS011;39539;52.202;9.876;2023-11-22T08:36:22;4.05;;;2.67;;
19675;SDS011;39539;52.202;9.876;2023-11-22T08:38:48;2.83;;;2.42;;
19675;SDS011;39539;52.202;9.876;2023-11-22T08:41:14;5.07;;;2.50;;
19675;SDS011;39539;52.202;9.876;2023-11-22T08:43:40;2.85;;;2.55;;
19675;SDS011;39539;52.202;9.876;2023-11-22T08:46:06;4.53;;;2.75;;
19675;SDS011;39539;52.202;9.876;2023-11-22T08:48:33;5.45;;;3.10;;
19675;SDS011;39539;52.202;9.876;2023-11-22T08:50:59;3.35;;;3.00;;
19675;SDS011;39539;52.202;9.876;2023-11-22T08:53:26;3.53;;;3.22;;
19675;SDS011;39539;52.202;9.876;2023-11-22T08:55:51;3.72;;;3.40;;
19675;SDS011;39539;52.202;9.876;2023-11-22T08:58:19;3.70;;;2.95;;
19675;SDS011;39539;52.202;9.876;2023-11-22T09:00:46;3.42;;;3.08;;
19675;SDS011;39539;52.202;9.876;2023-11-22T09:03:11;5.07;;;3.50;;
19675;SDS011;39539;52.202;9.876;2023-11-22T09:05:40;3.40;;;3.10;;
19675;SDS011;39539;52.202;9.876;2023-11-22T09:08:06;5.07;;;3.50;;
19675;SDS011;39539;52.202;9.876;2023-11-22T09:10:31;4.32;;;3.70;;
19675;SDS011;39539;52.202;9.876;2023-11-22T09:12:57;3.83;;;3.42;;
19675;SDS011;39539;52.202;9.876;2023-11-22T09:15:24;2.90;;;2.67;;
19675;SDS011;39539;52.202;9.876;2023-11-22T09:17:54;3.45;;;3.13;;
19675;SDS011;39539;52.202;9.876;2023-11-22T09:20:20;3.47;;;3.05;;
19675;SDS011;39539;52.202;9.876;2023-11-22T09:22:47;3.85;;;3.08;;
19675;SDS011;39539;52.202;9.876;2023-11-22T09:25:15;3.88;;;3.13;;
19675;SDS011;39539;52.202;9.876;2023-11-22T09:27:46;3.63;;;3.03;;
19675;SDS011;39539;52.202;9.876;2023-11-22T09:30:14;4.70;;;3.92;;
19675;SDS011;39539;52.202;9.876;2023-11-22T09:35:26;5.65;;;4.03;;
19675;SDS011;39539;52.202;9.876;2023-11-22T09:37:53;5.75;;;4.22;;
19675;SDS011;39539;52.202;9.876;2023-11-22T09:40:21;4.40;;;3.85;;
19675;SDS011;39539;52.202;9.876;2023-11-22T09:42:47;4.35;;;3.80;;
19675;SDS011;39539;52.202;9.876;2023-11-22T09:45:17;6.32;;;4.00;;
19675;SDS011;39539;52.202;9.876;2023-11-22T09:47:43;4.22;;;3.83;;
19675;SDS011;39539;52.202;9.876;2023-11-22T09:50:10;4.57;;;4.00;;
19675;SDS011;39539;52.202;9.876;2023-11-22T09:52:59;5.60;;;4.57;;
19675;SDS011;39539;52.202;9.876;2023-11-22T09:55:27;5.35;;;4.05;;
19675;SDS011;39539;52.202;9.876;2023-11-22T09:57:54;4.75;;;4.22;;
19675;SDS011;39539;52.202;9.876;2023-11-22T10:00:22;4.60;;;4.20;;
19675;SDS011;39539;52.202;9.876;2023-11-22T10:02:52;4.53;;;4.00;;
19675;SDS011;39539;52.202;9.876;2023-11-22T10:05:19;4.90;;;4.13;;
19675;SDS011;39539;52.202;9.876;2023-11-22T10:07:46;5.18;;;4.68;;
19675;SDS011;39539;52.202;9.876;2023-11-22T10:10:13;5.18;;;4.03;;
19675;SDS011;39539;52.202;9.876;2023-11-22T10:12:40;5.38;;;4.45;;
19675;SDS011;39539;52.202;9.876;2023-11-22T10:15:11;4.93;;;4.30;;
19675;SDS011;39539;52.202;9.876;2023-11-22T10:17:37;5.00;;;4.18;;
19675;SDS011;39539;52.202;9.876;2023-11-22T10:20:04;4.88;;;4.22;;
19675;SDS011;39539;52.202;9.876;2023-11-22T10:22:43;5.13;;;4.68;;
19675;SDS011;39539;52.202;9.876;2023-11-22T10:25:10;5.20;;;4.63;;
19675;SDS011;39539;52.202;9.876;2023-11-22T10:27:37;5.93;;;4.65;;
19675;SDS011;39539;52.202;9.876;2023-11-22T10:30:03;5.68;;;4.30;;
19675;SDS011;39539;52.202;9.876;2023-11-22T10:32:30;4.45;;;4.05;;
19675;SDS011;39539;52.202;9.876;2023-11-22T10:34:55;5.32;;;4.50;;
19675;SDS011;39539;52.202;9.876;2023-11-22T10:37:20;5.80;;;4.57;;
19675;SDS011;39539;52.202;9.876;2023-11-22T10:39:52;5.18;;;4.25;;
19675;SDS011;39539;52.202;9.876;2023-11-22T10:42:18;4.90;;;3.83;;
19675;SDS011;39539;52.202;9.876;2023-11-22T10:44:44;5.28;;;4.22;;
19675;SDS011;39539;52.202;9.876;2023-11-22T10:47:12;4.53;;;4.13;;
19675;SDS011;39539;52.202;9.876;2023-11-22T10:49:40;4.57;;;4.18;;
19675;SDS011;39539;52.202;9.876;2023-11-22T10:52:10;5.93;;;4.10;;
19675;SDS011;39539;52.202;9.876;2023-11-22T10:54:39;4.68;;;4.28;;
19675;SDS011;39539;52.202;9.876;2023-11-22T10:57:13;6.30;;;5.15;;
19675;SDS011;39539;52.202;9.876;2023-11-22T10:59:41;5.65;;;4.45;;
19675;SDS011;39539;52.202;9.876;2023-11-22T11:02:14;5.40;;;4.90;;
19675;SDS011;39539;52.202;9.876;2023-11-22T11:04:45;7.20;;;4.93;;
19675;SDS011;39539;52.202;9.876;2023-11-22T11:07:17;4.47;;;4.07;;
19675;SDS011;39539;52.202;9.876;2023-11-22T11:09:49;4.82;;;4.32;;
19675;SDS011;39539;52.202;9.876;2023-11-22T11:12:17;4.97;;;4.15;;
19675;SDS011;39539;52.202;9.876;2023-11-22T11:14:45;4.63;;;4.20;;
19675;SDS011;39539;52.202;9.876;2023-11-22T11:17:13;6.97;;;4.35;;
19675;SDS011;39539;52.202;9.876;2023-11-22T11:19:40;6.20;;;4.45;;
19675;SDS011;39539;52.202;9.876;2023-11-22T11:22:09;4.68;;;4.13;;
19675;SDS011;39539;52.202;9.876;2023-11-22T11:24:39;5.00;;;3.95;;
19675;SDS011;39539;52.202;9.876;2023-11-22T11:27:06;5.32;;;4.53;;
19675;SDS011;39539;52.202;9.876;2023-11-22T11:29:34;5.15;;;4.57;;
19675;SDS011;39539;52.202;9.876;2023-11-22T11:32:09;5.28;;;4.20;;
19675;SDS011;39539;52.202;9.876;2023-11-22T11:34:47;5.13;;;4.63;;
19675;SDS011;39539;52.202;9.876;2023-11-22T11:37:14;5.07;;;4.10;;
19675;SDS011;39539;52.202;9.876;2023-11-22T11:39:41;4.30;;;3.72;;
19675;SDS011;39539;52.202;9.876;2023-11-22T11:42:10;5.88;;;4.15;;
19675;SDS011;39539;52.202;9.876;2023-11-22T11:44:36;5.00;;;4.57;;
19675;SDS011;39539;52.202;9.876;2023-11-22T11:47:11;4.60;;;4.20;;
19675;SDS011;39539;52.202;9.876;2023-11-22T11:49:37;5.47;;;4.70;;
19675;SDS011;39539;52.202;9.876;2023-11-22T11:52:04;4.22;;;3.83;;
19675;SDS011;39539;52.202;9.876;2023-11-22T11:54:30;5.60;;;5.03;;
19675;SDS011;39539;52.202;9.876;2023-11-22T11:56:59;4.93;;;4.43;;
19675;SDS011;39539;52.202;9.876;2023-11-22T11:59:27;6.60;;;4.63;;
19675;SDS011;39539;52.202;9.876;2023-11-22T12:01:53;4.82;;;4.35;;
19675;SDS011;39539;52.202;9.876;2023-11-22T12:04:22;7.07;;;4.50;;
19675;SDS011;39539;52.202;9.876;2023-11-22T12:06:47;5.38;;;4.65;;
19675;SDS011;39539;52.202;9.876;2023-11-22T12:09:13;5.53;;;4.93;;
19675;SDS011;39539;52.202;9.876;2023-11-22T12:11:38;5.45;;;4.10;;
19675;SDS011;39539;52.202;9.876;2023-11-22T12:14:05;5.85;;;4.80;;
19675;SDS011;39539;52.202;9.876;2023-11-22T12:16:30;5.18;;;4.72;;
19675;SDS011;39539;52.202;9.876;2023-11-22T12:18:56;5.60;;;4.80;;
19675;SDS011;39539;52.202;9.876;2023-11-22T12:21:23;6.45;;;5.25;;
19675;SDS011;39539;52.202;9.876;2023-11-22T12:23:50;5.60;;;5.10;;
19675;SDS011;39539;52.202;9.876;2023-11-22T12:26:17;5.80;;;4.90;;
19675;SDS011;39539;52.202;9.876;2023-11-22T12:28:46;6.07;;;5.25;;
19675;SDS011;39539;52.202;9.876;2023-11-22T12:31:13;5.57;;;4.53;;
19675;SDS011;39539;52.202;9.876;2023-11-22T12:33:43;5.00;;;4.43;;
19675;SDS011;39539;52.202;9.876;2023-11-22T12:36:11;5.95;;;4.78;;
19675;SDS011;39539;52.202;9.876;2023-11-22T12:38:41;5.28;;;4.78;;
19675;SDS011;39539;52.202;9.876;2023-11-22T12:41:07;4.88;;;4.38;;
19675;SDS011;39539;52.202;9.876;2023-11-22T12:43:32;7.50;;;4.32;;
19675;SDS011;39539;52.202;9.876;2023-11-22T12:46:05;4.70;;;3.63;;
19675;SDS011;39539;52.202;9.876;2023-11-22T12:48:32;7.70;;;5.43;;
19675;SDS011;39539;52.202;9.876;2023-11-22T12:50:58;5.25;;;4.55;;
19675;SDS011;39539;52.202;9.876;2023-11-22T12:53:25;6.40;;;4.28;;
19675;SDS011;39539;52.202;9.876;2023-11-22T12:55:53;4.70;;;4.20;;
19675;SDS011;39539;52.202;9.876;2023-11-22T12:58:26;5.22;;;4.47;;
19675;SDS011;39539;52.202;9.876;2023-11-22T13:00:54;5.60;;;4.75;;
19675;SDS011;39539;52.202;9.876;2023-11-22T13:03:26;14.48;;;5.68;;
19675;SDS011;39539;52.202;9.876;2023-11-22T13:05:52;5.60;;;5.00;;
19675;SDS011;39539;52.202;9.876;2023-11-22T13:08:18;5.45;;;4.88;;
19675;SDS011;39539;52.202;9.876;2023-11-22T13:10:48;4.50;;;4.10;;
19675;SDS011;39539;52.202;9.876;2023-11-22T13:13:24;6.85;;;4.88;;
19675;SDS011;39539;52.202;9.876;2023-11-22T13:15:50;5.40;;;4.72;;
19675;SDS011;39539;52.202;9.876;2023-11-22T13:18:16;5.28;;;4.78;;
19675;SDS011;39539;52.202;9.876;2023-11-22T13:20:43;5.53;;;5.03;;
19675;SDS011;39539;52.202;9.876;2023-11-22T13:23:08;7.80;;;4.82;;
19675;SDS011;39539;52.202;9.876;2023-11-22T13:25:34;4.85;;;4.35;;
19675;SDS011;39539;52.202;9.876;2023-11-22T13:28:00;5.65;;;4.57;;
19675;SDS011;39539;52.202;9.876;2023-11-22T13:30:27;4.85;;;4.25;;
19675;SDS011;39539;52.202;9.876;2023-11-22T13:32:53;7.57;;;4.50;;
19675;SDS011;39539;52.202;9.876;2023-11-22T13:35:22;4.80;;;4.22;;
19675;SDS011;39539;52.202;9.876;2023-11-22T13:37:55;4.90;;;4.40;;
19675;SDS011;39539;52.202;9.876;2023-11-22T13:40:25;6.40;;;4.80;;
19675;SDS011;39539;52.202;9.876;2023-11-22T13:42:55;6.07;;;4.97;;
19675;SDS011;39539;52.202;9.876;2023-11-22T13:45:20;5.30;;;4.57;;
19675;SDS011;39539;52.202;9.876;2023-11-22T13:47:47;5.47;;;4.43;;
19675;SDS011;39539;52.202;9.876;2023-11-22T13:50:14;5.22;;;4.70;;
19675;SDS011;39539;52.202;9.876;2023-11-22T13:52:46;5.05;;;4.55;;
19675;SDS011;39539;52.202;9.876;2023-11-22T13:55:11;5.32;;;4.82;;
19675;SDS011;39539;52.202;9.876;2023-11-22T13:57:39;4.82;;;4.13;;
19675;SDS011;39539;52.202;9.876;2023-11-22T14:00:05;4.93;;;4.28;;
19675;SDS011;39539;52.202;9.876;2023-11-22T14:02:34;5.10;;;4.07;;
19675;SDS011;39539;52.202;9.876;2023-11-22T14:05:00;5.35;;;4.20;;
19675;SDS011;39539;52.202;9.876;2023-11-22T14:07:26;7.10;;;4.25;;
19675;SDS011;39539;52.202;9.876;2023-11-22T14:09:52;6.07;;;4.43;;
19675;SDS011;39539;52.202;9.876;2023-11-22T14:12:18;4.30;;;3.88;;
19675;SDS011;39539;52.202;9.876;2023-11-22T14:14:44;5.15;;;4.15;;
19675;SDS011;39539;52.202;9.876;2023-11-22T14:17:10;4.60;;;4.07;;
19675;SDS011;39539;52.202;9.876;2023-11-22T14:19:36;4.88;;;4.35;;
19675;SDS011;39539;52.202;9.876;2023-11-22T14:22:01;5.38;;;4.13;;
19675;SDS011;39539;52.202;9.876;2023-11-22T14:24:27;5.07;;;4.38;;
19675;SDS011;39539;52.202;9.876;2023-11-22T14:26:55;6.40;;;4.20;;
19675;SDS011;39539;52.202;9.876;2023-11-22T14:29:22;8.32;;;4.15;;
19675;SDS011;39539;52.202;9.876;2023-11-22T14:31:47;8.00;;;4.32;;
19675;SDS011;39539;52.202;9.876;2023-11-22T14:34:13;4.68;;;4.20;;
19675;SDS011;39539;52.202;9.876;2023-11-22T14:36:38;7.50;;;5.28;;
19675;SDS011;39539;52.202;9.876;2023-11-22T14:39:04;5.60;;;4.95;;
19675;SDS011;39539;52.202;9.876;2023-11-22T14:41:32;5.13;;;4.18;;
19675;SDS011;39539;52.202;9.876;2023-11-22T14:43:58;5.45;;;4.80;;
19675;SDS011;39539;52.202;9.876;2023-11-22T14:46:24;4.72;;;4.22;;